sensor_id;sensor_type;location;lat;lon;timestamp;pressure;altitude;pressure_sealevel;temperature;humidity
51460;BME280;37534;39.772;2.718;2023-05-25T00:00:14;101156.06;;;18.17;100.00
51460;BME280;37534;39.772;2.718;2023-05-25T00:02:40;101152.69;;;18.15;100.00
51460;BME280;37534;39.772;2.718;2023-05-25T00:05:11;101148.38;;;18.31;100.00
51460;BME280;37534;39.772;2.718;2023-05-25T00:07:37;101156.06;;;18.34;100.00
51460;BME280;37534;39.772;2.718;2023-05-25T00:10:03;101144.59;;;18.37;100.00
51460;BME280;37534;39.772;2.718;2023-05-25T00:12:29;101137.00;;;18.32;100.00
51460;BME280;37534;39.772;2.718;2023-05-25T00:14:55;101136.53;;;18.24;100.00
51460;BME280;37534;39.772;2.718;2023-05-25T00:17:20;101140.09;;;18.23;100.00
51460;BME280;37534;39.772;2.718;2023-05-25T00:19:46;101124.44;;;18.23;100.00
51460;BME280;37534;39.772;2.718;2023-05-25T00:22:12;101129.31;;;18.29;100.00
51460;BME280;37534;39.772;2.718;2023-05-25T00:24:40;101125.78;;;18.30;100.00
51460;BME280;37534;39.772;2.718;2023-05-25T00:27:06;101121.47;;;18.29;100.00
51460;BME280;37534;39.772;2.718;2023-05-25T00:29:33;101113.50;;;18.32;100.00
51460;BME280;37534;39.772;2.718;2023-05-25T00:31:59;101128.53;;;18.45;100.00
51460;BME280;37534;39.772;2.718;2023-05-25T00:34:25;101128.38;;;18.48;100.00
51460;BME280;37534;39.772;2.718;2023-05-25T00:36:50;101115.47;;;18.45;100.00
51460;BME280;37534;39.772;2.718;2023-05-25T00:39:17;101116.06;;;18.50;100.00
51460;BME280;37534;39.772;2.718;2023-05-25T00:41:44;101117.59;;;18.54;100.00
51460;BME280;37534;39.772;2.718;2023-05-25T00:44:11;101119.28;;;18.55;100.00
51460;BME280;37534;39.772;2.718;2023-05-25T00:46:46;101120.03;;;18.57;100.00
51460;BME280;37534;39.772;2.718;2023-05-25T00:49:13;101118.44;;;18.70;100.00
51460;BME280;37534;39.772;2.718;2023-05-25T00:51:41;101112.22;;;18.73;100.00
51460;BME280;37534;39.772;2.718;2023-05-25T00:54:06;101111.88;;;18.79;100.00
51460;BME280;37534;39.772;2.718;2023-05-25T00:56:37;101100.22;;;18.69;100.00
51460;BME280;37534;39.772;2.718;2023-05-25T00:59:05;101106.31;;;18.69;100.00
51460;BME280;37534;39.772;2.718;2023-05-25T01:01:34;101106.63;;;18.63;100.00
51460;BME280;37534;39.772;2.718;2023-05-25T01:04:08;101104.63;;;18.68;100.00
51460;BME280;37534;39.772;2.718;2023-05-25T01:06:35;101103.97;;;18.80;100.00
51460;BME280;37534;39.772;2.718;2023-05-25T01:09:07;101097.03;;;18.79;100.00
51460;BME280;37534;39.772;2.718;2023-05-25T01:11:38;101104.75;;;18.83;100.00
51460;BME280;37534;39.772;2.718;2023-05-25T01:14:05;101098.41;;;18.71;100.00
51460;BME280;37534;39.772;2.718;2023-05-25T01:16:30;101102.13;;;18.83;100.00
51460;BME280;37534;39.772;2.718;2023-05-25T01:18:56;101102.06;;;18.84;100.00
51460;BME280;37534;39.772;2.718;2023-05-25T01:24:42;101090.06;;;18.64;100.00
51460;BME280;37534;39.772;2.718;2023-05-25T01:27:16;101095.19;;;18.66;100.00
51460;BME280;37534;39.772;2.718;2023-05-25T01:29:44;101094.84;;;18.56;100.00
51460;BME280;37534;39.772;2.718;2023-05-25T01:32:12;101082.03;;;18.51;100.00
51460;BME280;37534;39.772;2.718;2023-05-25T01:34:39;101077.94;;;18.46;100.00
51460;BME280;37534;39.772;2.718;2023-05-25T01:37:06;101069.69;;;18.37;100.00
51460;BME280;37534;39.772;2.718;2023-05-25T01:39:31;101067.47;;;18.30;100.00
51460;BME280;37534;39.772;2.718;2023-05-25T01:41:57;101072.06;;;18.09;100.00
51460;BME280;37534;39.772;2.718;2023-05-25T01:44:22;101068.38;;;18.13;100.00
51460;BME280;37534;39.772;2.718;2023-05-25T01:47:02;101067.44;;;18.14;100.00
51460;BME280;37534;39.772;2.718;2023-05-25T01:50:11;101065.03;;;17.93;100.00
51460;BME280;37534;39.772;2.718;2023-05-25T01:52:38;101073.44;;;17.81;100.00
51460;BME280;37534;39.772;2.718;2023-05-25T01:55:10;101067.47;;;17.79;100.00
51460;BME280;37534;39.772;2.718;2023-05-25T01:57:37;101064.16;;;17.58;100.00
51460;BME280;37534;39.772;2.718;2023-05-25T02:00:07;101075.06;;;17.66;100.00
51460;BME280;37534;39.772;2.718;2023-05-25T02:02:34;101071.59;;;17.65;100.00
51460;BME280;37534;39.772;2.718;2023-05-25T02:05:00;101070.91;;;17.62;100.00
51460;BME280;37534;39.772;2.718;2023-05-25T02:07:26;101083.56;;;17.52;100.00
51460;BME280;37534;39.772;2.718;2023-05-25T02:09:51;101078.72;;;17.44;100.00
51460;BME280;37534;39.772;2.718;2023-05-25T02:12:17;101070.63;;;17.32;100.00
51460;BME280;37534;39.772;2.718;2023-05-25T02:14:42;101074.25;;;17.29;100.00
51460;BME280;37534;39.772;2.718;2023-05-25T02:17:10;101082.34;;;17.23;100.00
51460;BME280;37534;39.772;2.718;2023-05-25T02:19:37;101076.06;;;17.09;100.00
51460;BME280;37534;39.772;2.718;2023-05-25T02:22:02;101072.19;;;16.99;100.00
51460;BME280;37534;39.772;2.718;2023-05-25T02:24:28;101068.56;;;16.84;100.00
51460;BME280;37534;39.772;2.718;2023-05-25T02:26:53;101070.75;;;16.73;100.00
51460;BME280;37534;39.772;2.718;2023-05-25T02:29:19;101069.47;;;16.63;100.00
51460;BME280;37534;39.772;2.718;2023-05-25T02:31:44;101069.28;;;16.67;100.00
51460;BME280;37534;39.772;2.718;2023-05-25T02:34:10;101069.47;;;16.63;100.00
51460;BME280;37534;39.772;2.718;2023-05-25T02:36:36;101069.78;;;16.57;100.00
51460;BME280;37534;39.772;2.718;2023-05-25T02:39:02;101075.13;;;16.53;100.00
51460;BME280;37534;39.772;2.718;2023-05-25T02:41:27;101063.16;;;16.49;100.00
51460;BME280;37534;39.772;2.718;2023-05-25T02:43:53;101068.66;;;16.43;100.00
51460;BME280;37534;39.772;2.718;2023-05-25T02:46:19;101064.47;;;16.39;100.00
51460;BME280;37534;39.772;2.718;2023-05-25T02:48:45;101060.97;;;16.40;100.00
51460;BME280;37534;39.772;2.718;2023-05-25T02:51:11;101058.06;;;16.46;100.00
51460;BME280;37534;39.772;2.718;2023-05-25T02:53:37;101065.53;;;16.35;100.00
51460;BME280;37534;39.772;2.718;2023-05-25T02:56:03;101071.63;;;16.34;100.00
51460;BME280;37534;39.772;2.718;2023-05-25T02:58:30;101069.31;;;16.28;100.00
51460;BME280;37534;39.772;2.718;2023-05-25T03:00:55;101066.06;;;16.23;100.00
51460;BME280;37534;39.772;2.718;2023-05-25T03:03:24;101064.19;;;16.26;100.00
51460;BME280;37534;39.772;2.718;2023-05-25T03:05:50;101067.91;;;16.21;100.00
51460;BME280;37534;39.772;2.718;2023-05-25T03:08:16;101062.56;;;16.24;100.00
51460;BME280;37534;39.772;2.718;2023-05-25T03:10:42;101056.91;;;16.14;100.00
51460;BME280;37534;39.772;2.718;2023-05-25T03:13:07;101053.00;;;16.04;100.00
51460;BME280;37534;39.772;2.718;2023-05-25T03:15:32;101056.72;;;15.98;100.00
51460;BME280;37534;39.772;2.718;2023-05-25T03:17:58;101048.03;;;15.99;100.00
51460;BME280;37534;39.772;2.718;2023-05-25T03:20:26;101050.47;;;16.23;100.00
51460;BME280;37534;39.772;2.718;2023-05-25T03:22:53;101052.16;;;16.24;100.00
51460;BME280;37534;39.772;2.718;2023-05-25T03:25:19;101056.19;;;16.31;100.00
51460;BME280;37534;39.772;2.718;2023-05-25T03:27:45;101037.19;;;16.08;100.00
51460;BME280;37534;39.772;2.718;2023-05-25T03:30:11;101045.66;;;15.93;100.00
51460;BME280;37534;39.772;2.718;2023-05-25T03:32:36;101053.75;;;15.87;100.00
51460;BME280;37534;39.772;2.718;2023-05-25T03:35:04;101052.16;;;15.83;100.00
51460;BME280;37534;39.772;2.718;2023-05-25T03:37:29;101043.59;;;15.81;100.00
51460;BME280;37534;39.772;2.718;2023-05-25T03:39:55;101037.66;;;15.77;100.00
51460;BME280;37534;39.772;2.718;2023-05-25T03:42:20;101033.34;;;15.77;100.00
51460;BME280;37534;39.772;2.718;2023-05-25T03:44:46;101035.31;;;15.91;100.00
51460;BME280;37534;39.772;2.718;2023-05-25T03:47:11;101026.50;;;15.73;100.00
51460;BME280;37534;39.772;2.718;2023-05-25T03:49:37;101030.28;;;15.66;100.00
51460;BME280;37534;39.772;2.718;2023-05-25T03:52:03;101033.09;;;15.62;100.00
51460;BME280;37534;39.772;2.718;2023-05-25T03:54:30;101041.28;;;15.73;100.00
51460;BME280;37534;39.772;2.718;2023-05-25T03:56:56;101029.94;;;15.75;100.00
51460;BME280;37534;39.772;2.718;2023-05-25T03:59:23;101033.34;;;15.77;100.00
51460;BME280;37534;39.772;2.718;2023-05-25T04:01:50;101032.38;;;15.58;100.00
51460;BME280;37534;39.772;2.718;2023-05-25T04:04:16;101038.94;;;15.46;100.00
51460;BME280;37534;39.772;2.718;2023-05-25T04:06:42;101039.09;;;15.42;100.00
51460;BME280;37534;39.772;2.718;2023-05-25T04:09:10;101042.69;;;15.39;100.00
51460;BME280;37534;39.772;2.718;2023-05-25T04:11:36;101041.13;;;15.35;100.00
51460;BME280;37534;39.772;2.718;2023-05-25T04:14:02;101033.56;;;15.29;100.00
51460;BME280;37534;39.772;2.718;2023-05-25T04:16:28;101057.47;;;15.38;100.00
51460;BME280;37534;39.772;2.718;2023-05-25T04:18:54;101057.41;;;15.61;100.00
51460;BME280;37534;39.772;2.718;2023-05-25T04:21:20;101051.88;;;15.48;100.00
51460;BME280;37534;39.772;2.718;2023-05-25T04:23:46;101049.44;;;15.43;100.00
51460;BME280;37534;39.772;2.718;2023-05-25T04:26:12;101045.34;;;15.37;100.00
51460;BME280;37534;39.772;2.718;2023-05-25T04:28:38;101059.25;;;15.36;100.00
51460;BME280;37534;39.772;2.718;2023-05-25T04:31:05;101050.94;;;15.28;100.00
51460;BME280;37534;39.772;2.718;2023-05-25T04:33:31;101053.66;;;15.25;100.00
51460;BME280;37534;39.772;2.718;2023-05-25T04:35:59;101061.69;;;15.19;100.00
51460;BME280;37534;39.772;2.718;2023-05-25T04:38:25;101055.06;;;15.12;100.00
51460;BME280;37534;39.772;2.718;2023-05-25T04:40:51;101066.22;;;15.36;100.00
51460;BME280;37534;39.772;2.718;2023-05-25T04:43:18;101072.97;;;15.40;100.00
51460;BME280;37534;39.772;2.718;2023-05-25T04:45:45;101078.25;;;15.38;100.00
51460;BME280;37534;39.772;2.718;2023-05-25T04:48:11;101088.78;;;15.35;100.00
51460;BME280;37534;39.772;2.718;2023-05-25T04:50:39;101095.03;;;15.52;100.00
51460;BME280;37534;39.772;2.718;2023-05-25T04:53:05;101089.28;;;15.44;100.00
51460;BME280;37534;39.772;2.718;2023-05-25T04:55:31;101095.53;;;15.39;100.00
51460;BME280;37534;39.772;2.718;2023-05-25T04:57:56;101096.13;;;15.46;100.00
51460;BME280;37534;39.772;2.718;2023-05-25T05:00:24;101096.66;;;15.54;100.00
51460;BME280;37534;39.772;2.718;2023-05-25T05:02:49;101099.13;;;15.57;100.00
51460;BME280;37534;39.772;2.718;2023-05-25T05:05:16;101093.22;;;15.54;100.00
51460;BME280;37534;39.772;2.718;2023-05-25T05:07:42;101096.75;;;15.53;100.00
51460;BME280;37534;39.772;2.718;2023-05-25T05:10:08;101097.41;;;15.58;100.00
51460;BME280;37534;39.772;2.718;2023-05-25T05:12:34;101096.53;;;15.57;100.00
51460;BME280;37534;39.772;2.718;2023-05-25T05:14:59;101104.81;;;15.67;100.00
51460;BME280;37534;39.772;2.718;2023-05-25T05:17:25;101105.41;;;15.74;100.00
51460;BME280;37534;39.772;2.718;2023-05-25T05:19:52;101107.84;;;15.78;100.00
51460;BME280;37534;39.772;2.718;2023-05-25T05:22:21;101107.53;;;15.86;100.00
51460;BME280;37534;39.772;2.718;2023-05-25T05:24:46;101108.91;;;15.95;100.00
51460;BME280;37534;39.772;2.718;2023-05-25T05:27:12;101112.03;;;16.03;100.00
51460;BME280;37534;39.772;2.718;2023-05-25T05:29:39;101123.59;;;16.16;100.00
51460;BME280;37534;39.772;2.718;2023-05-25T05:32:05;101123.28;;;16.24;100.00
51460;BME280;37534;39.772;2.718;2023-05-25T05:34:31;101124.66;;;16.33;100.00
51460;BME280;37534;39.772;2.718;2023-05-25T05:36:57;101105.66;;;16.31;100.00
51460;BME280;37534;39.772;2.718;2023-05-25T05:39:25;101127.16;;;16.55;100.00
51460;BME280;37534;39.772;2.718;2023-05-25T05:41:50;101126.31;;;16.54;100.00
51460;BME280;37534;39.772;2.718;2023-05-25T05:44:16;101121.75;;;16.60;100.00
51460;BME280;37534;39.772;2.718;2023-05-25T05:46:41;101122.00;;;16.53;100.00
51460;BME280;37534;39.772;2.718;2023-05-25T05:49:07;101122.78;;;16.56;100.00
51460;BME280;37534;39.772;2.718;2023-05-25T05:51:32;101119.91;;;16.62;100.00
51460;BME280;37534;39.772;2.718;2023-05-25T05:53:58;101124.69;;;16.71;100.00
51460;BME280;37534;39.772;2.718;2023-05-25T05:56:23;101111.47;;;16.76;100.00
51460;BME280;37534;39.772;2.718;2023-05-25T05:58:50;101122.84;;;16.94;100.00
51460;BME280;37534;39.772;2.718;2023-05-25T06:01:17;101132.84;;;17.03;100.00
51460;BME280;37534;39.772;2.718;2023-05-25T06:03:43;101139.97;;;17.18;100.00
51460;BME280;37534;39.772;2.718;2023-05-25T06:06:10;101143.97;;;17.25;100.00
51460;BME280;37534;39.772;2.718;2023-05-25T06:08:36;101142.75;;;17.33;100.00
51460;BME280;37534;39.772;2.718;2023-05-25T06:11:01;101154.28;;;17.46;100.00
51460;BME280;37534;39.772;2.718;2023-05-25T06:13:27;101153.69;;;17.58;100.00
51460;BME280;37534;39.772;2.718;2023-05-25T06:15:52;101154.72;;;17.73;100.00
51460;BME280;37534;39.772;2.718;2023-05-25T06:18:18;101146.38;;;17.84;100.00
51460;BME280;37534;39.772;2.718;2023-05-25T06:20:43;101148.56;;;17.93;100.00
51460;BME280;37534;39.772;2.718;2023-05-25T06:23:09;101145.41;;;18.04;100.00
51460;BME280;37534;39.772;2.718;2023-05-25T06:25:36;101160.81;;;18.26;100.00
51460;BME280;37534;39.772;2.718;2023-05-25T06:28:02;101132.69;;;18.31;100.00
51460;BME280;37534;39.772;2.718;2023-05-25T06:30:28;101151.72;;;18.51;100.00
51460;BME280;37534;39.772;2.718;2023-05-25T06:32:53;101143.91;;;18.67;100.00
51460;BME280;37534;39.772;2.718;2023-05-25T06:35:19;101155.25;;;18.83;100.00
51460;BME280;37534;39.772;2.718;2023-05-25T06:37:48;101153.75;;;18.95;100.00
51460;BME280;37534;39.772;2.718;2023-05-25T06:40:15;101157.50;;;19.07;100.00
51460;BME280;37534;39.772;2.718;2023-05-25T06:42:41;101147.53;;;19.13;100.00
51460;BME280;37534;39.772;2.718;2023-05-25T06:45:07;101166.63;;;19.31;100.00
51460;BME280;37534;39.772;2.718;2023-05-25T06:47:33;101157.63;;;19.51;100.00
51460;BME280;37534;39.772;2.718;2023-05-25T06:49:59;101158.13;;;19.74;100.00
51460;BME280;37534;39.772;2.718;2023-05-25T06:52:25;101150.81;;;19.95;100.00
51460;BME280;37534;39.772;2.718;2023-05-25T06:54:54;101148.69;;;20.16;100.00
51460;BME280;37534;39.772;2.718;2023-05-25T06:57:23;101157.34;;;20.32;100.00
51460;BME280;37534;39.772;2.718;2023-05-25T06:59:49;101150.78;;;20.40;100.00
51460;BME280;37534;39.772;2.718;2023-05-25T07:02:14;101153.41;;;20.54;100.00
51460;BME280;37534;39.772;2.718;2023-05-25T07:04:40;101150.41;;;20.60;100.00
51460;BME280;37534;39.772;2.718;2023-05-25T07:07:06;101158.78;;;20.67;100.00
51460;BME280;37534;39.772;2.718;2023-05-25T07:09:32;101154.00;;;20.74;100.00
51460;BME280;37534;39.772;2.718;2023-05-25T07:11:57;101156.25;;;20.80;100.00
51460;BME280;37534;39.772;2.718;2023-05-25T07:14:23;101164.19;;;20.93;100.00
51460;BME280;37534;39.772;2.718;2023-05-25T07:16:49;101155.78;;;20.87;100.00
51460;BME280;37534;39.772;2.718;2023-05-25T07:19:14;101164.31;;;20.91;100.00
51460;BME280;37534;39.772;2.718;2023-05-25T07:21:40;101161.69;;;20.91;100.00
51460;BME280;37534;39.772;2.718;2023-05-25T07:24:06;101167.94;;;20.88;100.00
51460;BME280;37534;39.772;2.718;2023-05-25T07:26:33;101169.88;;;20.99;100.00
51460;BME280;37534;39.772;2.718;2023-05-25T07:28:59;101171.59;;;21.00;100.00
51460;BME280;37534;39.772;2.718;2023-05-25T07:31:25;101178.69;;;21.13;100.00
51460;BME280;37534;39.772;2.718;2023-05-25T07:33:51;101169.22;;;21.10;100.00
51460;BME280;37534;39.772;2.718;2023-05-25T07:36:18;101188.03;;;21.17;100.00
51460;BME280;37534;39.772;2.718;2023-05-25T07:38:46;101186.75;;;21.10;100.00
51460;BME280;37534;39.772;2.718;2023-05-25T07:41:12;101184.22;;;21.08;100.00
51460;BME280;37534;39.772;2.718;2023-05-25T07:43:38;101182.81;;;21.02;100.00
51460;BME280;37534;39.772;2.718;2023-05-25T07:46:04;101180.38;;;20.99;100.00
51460;BME280;37534;39.772;2.718;2023-05-25T07:48:30;101184.78;;;20.99;100.00
51460;BME280;37534;39.772;2.718;2023-05-25T07:50:55;101174.78;;;21.05;100.00
51460;BME280;37534;39.772;2.718;2023-05-25T07:53:21;101188.38;;;21.39;100.00
51460;BME280;37534;39.772;2.718;2023-05-25T07:55:46;101181.88;;;21.45;100.00
51460;BME280;37534;39.772;2.718;2023-05-25T07:58:12;101187.94;;;21.87;100.00
51460;BME280;37534;39.772;2.718;2023-05-25T08:00:38;101191.31;;;22.02;100.00
51460;BME280;37534;39.772;2.718;2023-05-25T08:03:03;101186.50;;;22.21;100.00
51460;BME280;37534;39.772;2.718;2023-05-25T08:05:30;101177.28;;;22.42;100.00
51460;BME280;37534;39.772;2.718;2023-05-25T08:07:55;101185.16;;;22.54;100.00
51460;BME280;37534;39.772;2.718;2023-05-25T08:10:21;101189.81;;;22.64;100.00
51460;BME280;37534;39.772;2.718;2023-05-25T08:12:47;101190.78;;;22.37;100.00
51460;BME280;37534;39.772;2.718;2023-05-25T08:15:13;101188.34;;;22.34;100.00
51460;BME280;37534;39.772;2.718;2023-05-25T08:17:41;101192.97;;;22.56;100.00
51460;BME280;37534;39.772;2.718;2023-05-25T08:20:07;101192.00;;;22.83;100.00
51460;BME280;37534;39.772;2.718;2023-05-25T08:22:33;101181.09;;;23.13;100.00
51460;BME280;37534;39.772;2.718;2023-05-25T08:24:59;101180.06;;;23.40;95.52
51460;BME280;37534;39.772;2.718;2023-05-25T08:27:25;101179.69;;;23.33;95.81
51460;BME280;37534;39.772;2.718;2023-05-25T08:29:51;101174.31;;;23.59;95.56
51460;BME280;37534;39.772;2.718;2023-05-25T08:32:16;101176.00;;;23.60;88.81
51460;BME280;37534;39.772;2.718;2023-05-25T08:34:42;101180.22;;;23.98;89.41
51460;BME280;37534;39.772;2.718;2023-05-25T08:37:07;101179.56;;;24.18;87.23
51460;BME280;37534;39.772;2.718;2023-05-25T08:39:33;101184.50;;;24.45;83.53
51460;BME280;37534;39.772;2.718;2023-05-25T08:41:58;101171.81;;;24.62;83.43
51460;BME280;37534;39.772;2.718;2023-05-25T08:44:25;101175.56;;;24.82;78.77
51460;BME280;37534;39.772;2.718;2023-05-25T08:46:51;101174.09;;;25.00;78.34
51460;BME280;37534;39.772;2.718;2023-05-25T08:49:22;101176.22;;;25.18;76.47
51460;BME280;37534;39.772;2.718;2023-05-25T08:51:52;101182.50;;;25.49;74.28
51460;BME280;37534;39.772;2.718;2023-05-25T08:54:28;101186.31;;;25.56;69.91
51460;BME280;37534;39.772;2.718;2023-05-25T08:56:59;101178.69;;;25.42;70.64
51460;BME280;37534;39.772;2.718;2023-05-25T09:04:48;101166.31;;;25.75;71.99
51460;BME280;37534;39.772;2.718;2023-05-25T09:07:13;101164.59;;;25.85;65.15
51460;BME280;37534;39.772;2.718;2023-05-25T09:09:40;101159.72;;;26.02;63.67
51460;BME280;37534;39.772;2.718;2023-05-25T09:12:07;101158.63;;;25.72;66.38
51460;BME280;37534;39.772;2.718;2023-05-25T09:14:33;101157.94;;;25.70;66.82
51460;BME280;37534;39.772;2.718;2023-05-25T09:17:00;101150.25;;;25.67;70.62
51460;BME280;37534;39.772;2.718;2023-05-25T09:19:25;101151.16;;;25.77;71.44
51460;BME280;37534;39.772;2.718;2023-05-25T09:21:51;101155.19;;;25.92;70.74
51460;BME280;37534;39.772;2.718;2023-05-25T09:24:17;101147.25;;;25.92;69.01
51460;BME280;37534;39.772;2.718;2023-05-25T09:26:43;101146.66;;;25.68;67.43
51460;BME280;37534;39.772;2.718;2023-05-25T09:29:13;101143.78;;;25.59;67.24
51460;BME280;37534;39.772;2.718;2023-05-25T09:31:38;101148.44;;;25.88;68.53
51460;BME280;37534;39.772;2.718;2023-05-25T09:34:11;101150.03;;;26.12;68.84
51460;BME280;37534;39.772;2.718;2023-05-25T09:36:36;101153.19;;;26.06;68.11
51460;BME280;37534;39.772;2.718;2023-05-25T09:39:08;101147.13;;;26.15;68.51
51460;BME280;37534;39.772;2.718;2023-05-25T09:41:33;101152.78;;;26.31;67.19
51460;BME280;37534;39.772;2.718;2023-05-25T09:44:00;101151.00;;;26.42;63.93
51460;BME280;37534;39.772;2.718;2023-05-25T09:46:26;101148.72;;;26.58;63.95
51460;BME280;37534;39.772;2.718;2023-05-25T09:48:53;101145.88;;;26.81;64.06
51460;BME280;37534;39.772;2.718;2023-05-25T09:51:19;101142.31;;;27.01;61.64
51460;BME280;37534;39.772;2.718;2023-05-25T09:53:46;101146.34;;;27.05;60.96
51460;BME280;37534;39.772;2.718;2023-05-25T09:56:12;101140.78;;;27.08;61.17
51460;BME280;37534;39.772;2.718;2023-05-25T09:58:37;101135.94;;;27.13;58.13
51460;BME280;37534;39.772;2.718;2023-05-25T10:01:03;101142.34;;;27.21;56.13
51460;BME280;37534;39.772;2.718;2023-05-25T10:03:29;101146.78;;;27.10;57.21
51460;BME280;37534;39.772;2.718;2023-05-25T10:05:55;101139.03;;;27.48;53.21
51460;BME280;37534;39.772;2.718;2023-05-25T10:08:22;101146.16;;;27.47;54.59
51460;BME280;37534;39.772;2.718;2023-05-25T10:10:50;101150.63;;;27.47;54.14
51460;BME280;37534;39.772;2.718;2023-05-25T10:13:20;101162.19;;;27.56;55.30
51460;BME280;37534;39.772;2.718;2023-05-25T10:15:52;101168.03;;;27.49;53.37
51460;BME280;37534;39.772;2.718;2023-05-25T10:18:23;101157.34;;;26.91;56.31
51460;BME280;37534;39.772;2.718;2023-05-25T10:20:52;101174.19;;;26.59;56.76
51460;BME280;37534;39.772;2.718;2023-05-25T10:23:23;101178.53;;;26.91;58.84
51460;BME280;37534;39.772;2.718;2023-05-25T10:25:54;101178.31;;;27.23;59.57
51460;BME280;37534;39.772;2.718;2023-05-25T10:28:38;101170.56;;;27.41;57.81
51460;BME280;37534;39.772;2.718;2023-05-25T10:31:04;101183.38;;;27.46;57.54
51460;BME280;37534;39.772;2.718;2023-05-25T10:33:31;101181.19;;;27.61;57.76
51460;BME280;37534;39.772;2.718;2023-05-25T10:35:58;101182.69;;;27.73;58.45
51460;BME280;37534;39.772;2.718;2023-05-25T10:38:29;101186.72;;;27.87;57.37
51460;BME280;37534;39.772;2.718;2023-05-25T10:40:56;101183.66;;;27.72;57.62
51460;BME280;37534;39.772;2.718;2023-05-25T10:43:22;101182.78;;;27.23;58.64
51460;BME280;37534;39.772;2.718;2023-05-25T10:45:48;101190.38;;;26.56;60.45
51460;BME280;37534;39.772;2.718;2023-05-25T10:48:16;101198.91;;;26.39;63.04
51460;BME280;37534;39.772;2.718;2023-05-25T10:50:49;101190.66;;;26.32;62.92
51460;BME280;37534;39.772;2.718;2023-05-25T10:53:15;101196.75;;;26.53;62.46
51460;BME280;37534;39.772;2.718;2023-05-25T10:58:20;101198.31;;;26.56;61.94
51460;BME280;37534;39.772;2.718;2023-05-25T11:06:18;101200.41;;;26.10;64.88
51460;BME280;37534;39.772;2.718;2023-05-25T11:08:58;101195.91;;;26.53;62.85
51460;BME280;37534;39.772;2.718;2023-05-25T11:17:13;101206.44;;;26.22;62.60
51460;BME280;37534;39.772;2.718;2023-05-25T11:19:49;101213.03;;;26.07;63.68
51460;BME280;37534;39.772;2.718;2023-05-25T11:22:35;101211.59;;;25.82;65.78
51460;BME280;37534;39.772;2.718;2023-05-25T11:28:03;101208.72;;;25.18;67.94
51460;BME280;37534;39.772;2.718;2023-05-25T11:30:29;101217.28;;;24.99;69.75
51460;BME280;37534;39.772;2.718;2023-05-25T11:32:56;101220.63;;;24.90;71.06
51460;BME280;37534;39.772;2.718;2023-05-25T11:35:24;101200.63;;;24.65;73.12
51460;BME280;37534;39.772;2.718;2023-05-25T11:37:50;101209.25;;;24.67;73.98
51460;BME280;37534;39.772;2.718;2023-05-25T11:40:21;101209.75;;;24.61;76.11
51460;BME280;37534;39.772;2.718;2023-05-25T11:42:47;101204.28;;;24.51;77.79
51460;BME280;37534;39.772;2.718;2023-05-25T11:45:14;101208.28;;;24.57;77.87
51460;BME280;37534;39.772;2.718;2023-05-25T11:47:40;101203.16;;;24.55;78.53
51460;BME280;37534;39.772;2.718;2023-05-25T11:50:06;101210.34;;;24.64;77.23
51460;BME280;37534;39.772;2.718;2023-05-25T11:52:31;101210.34;;;24.76;77.87
51460;BME280;37534;39.772;2.718;2023-05-25T11:54:57;101210.94;;;24.68;77.37
51460;BME280;37534;39.772;2.718;2023-05-25T11:57:24;101202.28;;;24.55;77.27
51460;BME280;37534;39.772;2.718;2023-05-25T11:59:57;101198.94;;;24.64;76.21
51460;BME280;37534;39.772;2.718;2023-05-25T12:02:25;101197.88;;;24.89;75.26
51460;BME280;37534;39.772;2.718;2023-05-25T12:07:21;101179.38;;;25.55;72.27
51460;BME280;37534;39.772;2.718;2023-05-25T12:09:46;101192.69;;;25.86;70.65
51460;BME280;37534;39.772;2.718;2023-05-25T12:12:12;101184.09;;;26.26;67.87
51460;BME280;37534;39.772;2.718;2023-05-25T12:14:50;101195.38;;;26.59;65.97
51460;BME280;37534;39.772;2.718;2023-05-25T12:17:17;101176.00;;;26.89;62.48
51460;BME280;37534;39.772;2.718;2023-05-25T12:19:43;101172.13;;;26.93;64.25
51460;BME280;37534;39.772;2.718;2023-05-25T12:22:10;101182.28;;;27.29;62.69
51460;BME280;37534;39.772;2.718;2023-05-25T12:24:38;101172.50;;;27.39;61.35
51460;BME280;37534;39.772;2.718;2023-05-25T12:27:15;101176.13;;;27.48;60.26
51460;BME280;37534;39.772;2.718;2023-05-25T12:29:48;101161.88;;;27.78;58.58
51460;BME280;37534;39.772;2.718;2023-05-25T12:32:14;101161.88;;;27.88;55.39
51460;BME280;37534;39.772;2.718;2023-05-25T12:34:39;101158.00;;;27.82;57.30
51460;BME280;37534;39.772;2.718;2023-05-25T12:37:16;101150.19;;;27.71;56.79
51460;BME280;37534;39.772;2.718;2023-05-25T12:39:47;101145.72;;;27.72;55.46
51460;BME280;37534;39.772;2.718;2023-05-25T12:42:14;101146.13;;;27.86;56.56
51460;BME280;37534;39.772;2.718;2023-05-25T12:44:41;101138.72;;;27.80;55.72
51460;BME280;37534;39.772;2.718;2023-05-25T12:49:37;101151.63;;;28.22;54.42
51460;BME280;37534;39.772;2.718;2023-05-25T12:52:04;101147.81;;;28.35;52.60
51460;BME280;37534;39.772;2.718;2023-05-25T12:54:42;101150.06;;;28.39;51.45
51460;BME280;37534;39.772;2.718;2023-05-25T12:57:13;101130.31;;;28.52;51.07
51460;BME280;37534;39.772;2.718;2023-05-25T12:59:46;101148.75;;;28.81;50.29
51460;BME280;37534;39.772;2.718;2023-05-25T13:02:12;101143.66;;;28.70;47.79
51460;BME280;37534;39.772;2.718;2023-05-25T13:04:39;101161.88;;;28.82;47.57
51460;BME280;37534;39.772;2.718;2023-05-25T13:07:09;101149.38;;;28.75;47.96
51460;BME280;37534;39.772;2.718;2023-05-25T13:09:35;101143.28;;;28.55;48.05
51460;BME280;37534;39.772;2.718;2023-05-25T13:12:01;101159.66;;;28.03;48.24